Time;durP1;ratioP1;P1;durP2;ratioP2;P2;SDS_P1;SDS_P2;PMS_P1;PMS_P2;Temp;Humidity;BMP_temperature;BMP_pressure;BME280_temperature;BME280_humidity;BME280_pressure;Samples;Min_cycle;Max_cycle;Signal;HPM_P1;HPM_P2
2022/08/21 00:01:12;;;;;;;4.43;2.80;;;;;;;17.70;75.35;98212.16;5056021;28;20214;-69
2022/08/21 00:03:39;;;;;;;5.10;3.20;;;;;;;17.60;76.05;98209.38;5056100;28;20217;-69
2022/08/21 00:06:05;;;;;;;3.90;2.77;;;;;;;17.59;76.20;98207.78;5056029;28;20285;-69
2022/08/21 00:08:32;;;;;;;4.87;2.73;;;;;;;17.64;76.25;98205.13;5055932;28;20213;-69
2022/08/21 00:10:58;;;;;;;4.97;2.60;;;;;;;17.48;77.02;98206.09;5055600;28;20235;-69
2022/08/21 00:13:25;;;;;;;4.53;2.80;;;;;;;17.47;77.25;98206.34;5056466;28;20205;-69
2022/08/21 00:15:52;;;;;;;4.53;2.73;;;;;;;17.39;77.74;98209.47;5055859;28;20231;-69
2022/08/21 00:18:20;;;;;;;5.53;2.87;;;;;;;17.35;77.88;98203.00;5055008;28;20316;-69
2022/08/21 00:20:48;;;;;;;4.80;2.53;;;;;;;17.37;78.01;98195.50;5056371;28;20240;-69
2022/08/21 00:23:14;;;;;;;3.10;2.70;;;;;;;17.39;77.32;98193.34;5055814;28;20201;-69
2022/08/21 00:25:43;;;;;;;2.73;2.50;;;;;;;17.29;77.48;98194.09;5055754;28;20197;-69
2022/08/21 00:28:09;;;;;;;5.03;2.50;;;;;;;17.25;77.74;98201.06;5055368;28;20296;-69
2022/08/21 00:30:36;;;;;;;4.20;2.90;;;;;;;17.28;77.56;98199.75;5055384;28;20787;-69
2022/08/21 00:33:04;;;;;;;3.40;2.47;;;;;;;17.14;78.27;98193.97;5055586;28;20236;-69
2022/08/21 00:35:39;;;;;;;4.17;3.10;;;;;;;17.10;78.59;98192.88;5055191;28;20221;-69
2022/08/21 00:38:08;;;;;;;3.10;2.80;;;;;;;16.99;78.99;98190.38;5055162;28;20189;-69
2022/08/21 00:40:38;;;;;;;4.20;2.67;;;;;;;16.99;79.09;98196.56;5055339;28;20229;-69
2022/08/21 00:43:07;;;;;;;4.07;2.67;;;;;;;17.12;78.52;98196.13;5055085;28;20216;-69
2022/08/21 00:45:34;;;;;;;5.23;2.40;;;;;;;17.08;78.04;98195.03;5055018;28;20243;-69
2022/08/21 00:48:01;;;;;;;2.90;2.17;;;;;;;17.01;78.41;98191.72;5055508;28;20296;-69
2022/08/21 00:50:33;;;;;;;7.40;2.50;;;;;;;17.03;78.08;98188.78;5054865;28;20256;-69
2022/08/21 00:53:02;;;;;;;3.00;2.60;;;;;;;16.98;78.18;98184.19;5054936;28;20201;-69
2022/08/21 00:55:30;;;;;;;2.93;2.50;;;;;;;16.90;78.42;98186.53;5054783;28;20703;-69
2022/08/21 00:57:59;;;;;;;3.83;2.50;;;;;;;16.99;78.26;98185.81;5037420;28;20231;-69
2022/08/21 01:00:35;;;;;;;4.13;2.50;;;;;;;16.94;78.03;98180.41;5055058;28;20321;-69
2022/08/21 01:03:06;;;;;;;5.03;2.23;;;;;;;16.95;78.31;98184.72;5055551;28;20227;-69
2022/08/21 01:05:33;;;;;;;5.03;2.10;;;;;;;16.90;78.25;98184.66;5055689;28;20532;-69
2022/08/21 01:08:00;;;;;;;2.60;2.20;;;;;;;16.88;78.81;98186.78;5054964;28;20288;-69
2022/08/21 01:10:27;;;;;;;4.10;2.13;;;;;;;16.85;79.36;98178.44;5054532;28;20271;-69
2022/08/21 01:12:56;;;;;;;2.47;2.00;;;;;;;16.85;79.25;98187.31;5054744;28;20751;-69
2022/08/21 01:15:28;;;;;;;4.07;2.40;;;;;;;16.91;79.17;98180.91;5054655;28;20201;-69
2022/08/21 01:17:55;;;;;;;4.37;2.27;;;;;;;16.73;79.78;98186.66;5054648;28;20667;-69
2022/08/21 01:20:21;;;;;;;3.67;2.43;;;;;;;16.76;79.83;98182.66;5054275;28;20889;-69
2022/08/21 01:22:48;;;;;;;4.00;2.67;;;;;;;16.74;80.08;98185.59;5054684;28;20209;-69
2022/08/21 01:25:19;;;;;;;3.83;2.33;;;;;;;16.73;80.22;98183.19;5054223;28;20756;-69
2022/08/21 01:27:46;;;;;;;3.83;2.37;;;;;;;16.66;80.54;98172.66;5054450;28;20186;-69
2022/08/21 01:30:20;;;;;;;3.97;2.40;;;;;;;16.62;80.61;98179.59;5053975;28;20601;-69
2022/08/21 01:32:48;;;;;;;4.50;2.33;;;;;;;16.65;80.92;98173.69;5054512;28;20189;-69
2022/08/21 01:35:16;;;;;;;3.30;2.60;;;;;;;16.62;80.75;98176.91;5054022;28;20259;-69
2022/08/21 01:37:44;;;;;;;4.43;2.47;;;;;;;16.54;81.02;98166.63;5054430;28;20232;-69
2022/08/21 01:40:13;;;;;;;3.93;2.50;;;;;;;16.45;81.73;98181.56;5054166;28;20308;-69
2022/08/21 01:42:41;;;;;;;3.40;2.03;;;;;;;16.43;81.92;98178.31;5054093;28;20263;-69
2022/08/21 01:45:10;;;;;;;5.07;2.50;;;;;;;16.48;81.24;98167.63;5053901;28;20215;-69
2022/08/21 01:47:37;;;;;;;3.10;2.10;;;;;;;16.30;82.18;98167.97;5054223;28;20201;-69
2022/08/21 01:50:07;;;;;;;5.27;2.47;;;;;;;16.30;82.24;98170.63;5054081;28;20312;-69
2022/08/21 01:52:34;;;;;;;3.67;2.43;;;;;;;16.26;82.18;98166.84;5054093;28;20217;-69
2022/08/21 01:55:00;;;;;;;3.80;2.33;;;;;;;16.24;82.65;98177.00;5054045;28;20300;-69
2022/08/21 01:57:28;;;;;;;4.47;2.37;;;;;;;16.31;82.25;98169.56;5053898;28;20235;-69
2022/08/21 01:59:54;;;;;;;5.60;2.47;;;;;;;16.28;82.51;98175.44;5053919;28;20252;-69
2022/08/21 02:02:21;;;;;;;5.03;2.60;;;;;;;16.26;83.18;98164.16;5053926;28;20570;-69
2022/08/21 02:04:47;;;;;;;6.17;2.27;;;;;;;16.33;82.96;98170.13;5053795;28;20673;-69
2022/08/21 02:07:15;;;;;;;3.63;2.50;;;;;;;16.39;82.92;98160.25;5053530;28;20207;-69
2022/08/21 02:09:42;;;;;;;3.43;2.50;;;;;;;16.32;82.81;98155.09;5053726;28;20229;-69
2022/08/21 02:12:11;;;;;;;2.97;2.23;;;;;;;16.31;83.50;98156.16;5053266;28;20209;-69
2022/08/21 02:14:37;;;;;;;4.93;2.67;;;;;;;16.35;82.69;98156.44;5053328;28;20764;-69
2022/08/21 02:17:04;;;;;;;3.87;2.50;;;;;;;16.26;82.74;98156.09;5053578;28;20225;-69
2022/08/21 02:19:31;;;;;;;4.20;2.50;;;;;;;16.17;83.33;98162.16;5053582;28;20259;-69
2022/08/21 02:21:57;;;;;;;2.87;2.30;;;;;;;16.20;82.91;98157.09;5053547;28;20647;-69
2022/08/21 02:24:24;;;;;;;5.80;2.63;;;;;;;16.17;82.41;98149.56;5053258;28;20242;-69
2022/08/21 02:26:50;;;;;;;3.60;2.43;;;;;;;16.11;82.72;98144.41;5053588;28;20201;-69
2022/08/21 02:29:16;;;;;;;5.53;2.27;;;;;;;16.12;82.61;98162.94;5053306;28;20239;-69
2022/08/21 02:31:43;;;;;;;3.43;2.40;;;;;;;16.09;83.08;98149.19;5053171;28;20639;-69
2022/08/21 02:34:10;;;;;;;3.57;2.70;;;;;;;16.06;83.08;98157.75;5053070;28;20694;-69
2022/08/21 02:36:37;;;;;;;3.30;2.70;;;;;;;16.09;82.81;98155.38;5052857;28;20704;-69
2022/08/21 02:39:03;;;;;;;4.40;2.50;;;;;;;16.04;82.89;98157.19;5053435;28;20229;-69
2022/08/21 02:41:31;;;;;;;4.40;2.57;;;;;;;16.07;82.90;98146.78;5052526;28;20263;-69
2022/08/21 02:43:58;;;;;;;3.13;2.67;;;;;;;15.95;83.14;98151.47;5053342;28;20204;-69
2022/08/21 02:46:24;;;;;;;6.47;2.33;;;;;;;15.90;83.50;98150.59;5053411;28;20197;-69
2022/08/21 02:48:51;;;;;;;3.00;2.23;;;;;;;15.96;83.22;98145.03;5053227;28;20208;-69
2022/08/21 02:51:22;;;;;;;3.83;2.47;;;;;;;15.90;84.01;98150.59;5053286;28;20695;-69
2022/08/21 02:53:49;;;;;;;3.20;2.07;;;;;;;15.75;84.65;98155.78;5053422;28;20205;-69
2022/08/21 02:56:22;;;;;;;5.30;2.43;;;;;;;15.72;85.30;98154.41;5052803;28;20221;-69
2022/08/21 02:58:52;;;;;;;4.57;2.80;;;;;;;15.72;85.88;98156.25;5052842;28;20193;-69
2022/08/21 03:01:19;;;;;;;2.27;2.03;;;;;;;15.75;85.70;98159.25;5053184;28;20185;-69
2022/08/21 03:03:49;;;;;;;5.60;2.43;;;;;;;15.85;85.62;98153.22;5053118;28;20211;-69
2022/08/21 03:06:18;;;;;;;2.83;2.30;;;;;;;15.92;84.99;98148.47;5053125;28;20212;-69
2022/08/21 03:08:45;;;;;;;3.27;2.63;;;;;;;15.87;84.91;98156.47;5053139;28;20209;-69
2022/08/21 03:11:13;;;;;;;2.97;2.60;;;;;;;15.88;85.05;98150.03;5053132;28;20258;-69
2022/08/21 03:13:40;;;;;;;3.90;2.30;;;;;;;15.77;85.73;98150.97;5053129;28;20209;-69
2022/08/21 03:16:08;;;;;;;4.10;2.10;;;;;;;15.69;86.42;98154.09;5052662;28;20299;-69
2022/08/21 03:18:35;;;;;;;4.73;2.53;;;;;;;15.68;86.34;98152.44;5053075;28;20628;-69
2022/08/21 03:21:01;;;;;;;2.87;2.33;;;;;;;15.58;87.11;98150.47;5053075;28;20568;-69
2022/08/21 03:23:30;;;;;;;3.40;2.67;;;;;;;15.57;87.71;98146.16;5052555;28;20205;-69
2022/08/21 03:25:57;;;;;;;4.10;2.23;;;;;;;15.65;86.88;98148.41;5052666;28;20672;-69
2022/08/21 03:28:25;;;;;;;5.23;2.70;;;;;;;15.65;86.91;98150.28;5053005;28;20202;-69
2022/08/21 03:30:52;;;;;;;3.60;2.20;;;;;;;15.59;87.11;98156.63;5052789;28;20239;-69
2022/08/21 03:33:19;;;;;;;4.20;2.40;;;;;;;15.60;87.25;98155.59;5052502;28;20297;-69
2022/08/21 03:35:53;;;;;;;3.97;2.47;;;;;;;15.65;86.95;98156.44;5052609;28;20201;-69
2022/08/21 03:38:19;;;;;;;4.77;2.43;;;;;;;15.60;86.91;98155.59;5052853;28;20225;-69
2022/08/21 03:40:46;;;;;;;3.37;2.50;;;;;;;15.59;87.75;98154.75;5052590;28;20231;-69
2022/08/21 03:43:12;;;;;;;5.60;2.53;;;;;;;15.51;88.15;98165.91;5053312;28;20308;-69
2022/08/21 03:45:39;;;;;;;3.07;2.43;;;;;;;15.60;87.66;98163.63;5053011;28;20205;-69
2022/08/21 03:48:07;;;;;;;4.03;2.57;;;;;;;15.60;87.61;98164.41;5052573;28;20208;-69
2022/08/21 03:50:38;;;;;;;2.73;2.50;;;;;;;15.66;87.32;98165.31;5052597;28;20308;-69
2022/08/21 03:53:04;;;;;;;5.63;2.33;;;;;;;15.67;87.33;98164.22;5052628;28;20189;-69
2022/08/21 03:55:30;;;;;;;3.20;2.77;;;;;;;15.63;87.65;98176.50;5055993;28;20300;-69
2022/08/21 03:57:57;;;;;;;4.53;2.97;;;;;;;15.59;87.33;98172.69;5056212;28;20231;-69
2022/08/21 04:00:24;;;;;;;6.10;2.70;;;;;;;15.61;87.71;98173.28;5055793;28;20312;-69
2022/08/21 04:02:51;;;;;;;3.23;2.50;;;;;;;15.56;87.64;98171.31;5056828;28;20292;-69
2022/08/21 04:05:26;;;;;;;4.27;3.03;;;;;;;15.56;88.01;98171.31;5056063;28;20209;-69
2022/08/21 04:07:54;;;;;;;6.60;2.37;;;;;;;15.52;87.76;98170.19;5055735;28;20181;-69
2022/08/21 04:10:21;;;;;;;3.97;2.80;;;;;;;15.49;87.93;98169.88;5056137;28;20762;-69
2022/08/21 04:12:48;;;;;;;3.43;2.23;;;;;;;15.33;88.58;98166.16;5055874;28;20236;-69
2022/08/21 04:15:14;;;;;;;2.93;2.60;;;;;;;15.28;89.06;98171.44;5055917;28;20205;-69
2022/08/21 04:17:40;;;;;;;3.47;2.60;;;;;;;15.19;89.51;98175.59;5055462;28;20223;-69
2022/08/21 04:20:07;;;;;;;3.37;2.37;;;;;;;15.17;89.92;98169.69;5055450;28;20712;-68
2022/08/21 04:22:34;;;;;;;4.20;2.20;;;;;;;15.16;89.88;98178.75;5055750;28;20296;-68
2022/08/21 04:25:00;;;;;;;3.40;2.50;;;;;;;15.14;90.18;98180.88;5056259;28;20620;-69
2022/08/21 04:27:26;;;;;;;3.93;2.53;;;;;;;15.10;90.68;98190.44;5055413;28;20288;-69
2022/08/21 04:29:53;;;;;;;4.33;3.10;;;;;;;15.05;91.00;98184.19;5055373;28;20716;-69
2022/08/21 04:32:26;;;;;;;2.90;2.60;;;;;;;15.06;91.17;98180.47;5055542;28;20213;-69
2022/08/21 04:35:03;;;;;;;3.57;2.60;;;;;;;15.03;91.28;98189.81;5055233;28;20731;-69
2022/08/21 04:37:30;;;;;;;5.57;3.00;;;;;;;15.07;91.14;98193.59;5055877;28;20239;-69
2022/08/21 04:39:57;;;;;;;3.57;2.63;;;;;;;14.98;91.82;98200.44;5055428;28;20315;-69
2022/08/21 04:42:28;;;;;;;4.20;2.77;;;;;;;15.00;92.27;98202.84;5055455;28;20212;-69
2022/08/21 04:44:56;;;;;;;3.03;2.70;;;;;;;14.99;91.93;98204.72;5055377;28;20243;-69
2022/08/21 04:47:23;;;;;;;3.50;2.80;;;;;;;15.06;91.35;98202.69;5054958;28;20292;-69
2022/08/21 04:49:49;;;;;;;6.50;2.77;;;;;;;15.09;91.08;98202.22;5055110;28;20229;-69
2022/08/21 04:52:20;;;;;;;2.80;2.50;;;;;;;15.02;91.64;98198.88;5055209;28;20207;-69
2022/08/21 04:54:48;;;;;;;3.73;2.97;;;;;;;15.03;91.84;98205.88;5054845;28;20655;-69
2022/08/21 04:57:17;;;;;;;3.73;2.70;;;;;;;15.14;91.12;98204.97;5054784;28;20762;-69
2022/08/21 04:59:51;;;;;;;2.70;2.50;;;;;;;15.25;89.96;98209.41;5037679;28;20229;-69
2022/08/21 05:02:18;;;;;;;4.70;2.70;;;;;;;15.33;89.51;98205.53;5054821;28;20636;-69
2022/08/21 05:04:49;;;;;;;3.63;2.60;;;;;;;15.40;88.71;98206.19;5054623;28;20291;-69
2022/08/21 05:07:20;;;;;;;6.23;2.90;;;;;;;15.49;88.19;98212.75;5055379;28;20189;-69
2022/08/21 05:09:47;;;;;;;3.53;2.70;;;;;;;15.52;86.70;98205.03;5055315;28;20225;-69
2022/08/21 05:12:13;;;;;;;4.43;2.83;;;;;;;15.64;86.23;98205.75;5054845;28;20205;-69
2022/08/21 05:14:41;;;;;;;5.23;2.87;;;;;;;15.71;85.61;98206.41;5054732;28;20576;-69
2022/08/21 05:17:07;;;;;;;5.93;2.60;;;;;;;15.80;84.00;98209.44;5054714;28;20228;-69
2022/08/21 05:19:33;;;;;;;3.50;2.50;;;;;;;15.84;83.78;98211.38;5054362;28;20745;-69
2022/08/21 05:22:00;;;;;;;5.13;3.10;;;;;;;15.90;83.05;98217.63;5054715;28;20252;-69
2022/08/21 05:24:27;;;;;;;4.57;2.70;;;;;;;15.85;81.43;98222.91;5054357;28;20747;-69
2022/08/21 05:26:54;;;;;;;4.80;2.90;;;;;;;15.88;81.21;98225.91;5054622;28;20288;-69
2022/08/21 05:29:21;;;;;;;3.60;2.30;;;;;;;15.99;80.73;98225.00;5054264;28;20327;-69
2022/08/21 05:31:48;;;;;;;3.53;2.53;;;;;;;16.02;81.42;98223.69;5054545;28;20185;-69
2022/08/21 05:34:24;;;;;;;4.80;2.23;;;;;;;16.02;81.27;98229.03;5054330;28;20291;-69
2022/08/21 05:36:51;;;;;;;3.90;2.70;;;;;;;16.06;81.34;98228.28;5053963;28;20694;-69
2022/08/21 05:39:18;;;;;;;5.80;2.60;;;;;;;16.08;81.29;98228.84;5053939;28;20225;-69
2022/08/21 05:41:44;;;;;;;4.10;2.83;;;;;;;16.23;80.24;98223.66;5054577;28;20549;-69
2022/08/21 05:44:10;;;;;;;3.90;2.37;;;;;;;16.28;79.76;98229.09;5054113;28;20303;-69
2022/08/21 05:46:37;;;;;;;2.50;2.20;;;;;;;16.26;79.83;98236.59;5053827;28;20651;-69
2022/08/21 05:49:03;;;;;;;4.07;2.80;;;;;;;16.32;79.93;98232.06;5054107;28;20256;-69
2022/08/21 05:51:30;;;;;;;3.80;2.90;;;;;;;16.34;79.46;98238.84;5054002;28;20215;-69
2022/08/21 05:53:56;;;;;;;3.93;2.40;;;;;;;16.42;78.90;98241.09;5054123;28;20632;-69
2022/08/21 05:56:23;;;;;;;5.73;2.87;;;;;;;16.62;77.94;98240.50;5054482;28;20296;-69
2022/08/21 05:58:49;;;;;;;4.60;2.67;;;;;;;16.58;77.66;98231.31;5054003;28;20292;-69
2022/08/21 06:01:15;;;;;;;3.80;2.50;;;;;;;16.54;77.90;98231.03;5053995;28;20205;-69
2022/08/21 06:03:43;;;;;;;4.63;2.73;;;;;;;16.70;78.08;98238.16;5053976;28;20204;-69
2022/08/21 06:06:10;;;;;;;3.57;2.80;;;;;;;16.85;77.34;98234.81;5053849;28;20211;-69
2022/08/21 06:08:37;;;;;;;4.73;2.43;;;;;;;16.92;77.22;98233.56;5053458;28;20679;-69
2022/08/21 06:11:05;;;;;;;2.93;2.63;;;;;;;17.02;76.61;98228.28;5054367;28;20288;-69
2022/08/21 06:13:33;;;;;;;3.70;2.93;;;;;;;17.08;76.30;98227.25;5053419;28;20664;-69
2022/08/21 06:16:14;;;;;;;5.63;2.50;;;;;;;17.11;75.61;98232.13;5053379;28;20229;-69
2022/08/21 06:18:41;;;;;;;4.50;2.50;;;;;;;17.28;75.27;98230.09;5053879;28;20553;-69
2022/08/21 06:21:08;;;;;;;3.20;2.33;;;;;;;17.34;74.97;98239.00;5053336;28;20230;-69
2022/08/21 06:23:36;;;;;;;4.17;2.57;;;;;;;17.42;75.04;98236.69;5053618;28;20300;-69
2022/08/21 06:26:04;;;;;;;3.83;2.57;;;;;;;17.50;74.19;98235.41;5053592;28;20233;-69
2022/08/21 06:28:31;;;;;;;4.03;2.30;;;;;;;17.64;73.95;98244.66;5053568;28;20217;-69
2022/08/21 06:30:57;;;;;;;4.13;2.73;;;;;;;17.65;74.04;98240.88;5053151;28;20243;-69
2022/08/21 06:33:24;;;;;;;5.10;2.57;;;;;;;17.77;73.67;98236.91;5053360;28;20228;-69
2022/08/21 06:35:51;;;;;;;3.50;2.33;;;;;;;17.86;73.60;98238.06;5053056;28;20241;-69
2022/08/21 06:38:18;;;;;;;4.43;2.57;;;;;;;18.08;72.39;98230.63;5053278;28;20311;-69
2022/08/21 06:40:44;;;;;;;4.70;2.50;;;;;;;18.12;71.46;98226.34;5053344;28;20235;-69
2022/08/21 06:43:16;;;;;;;5.93;2.50;;;;;;;18.20;70.93;98225.03;5053373;28;20291;-69
2022/08/21 06:45:43;;;;;;;3.23;2.63;;;;;;;18.26;70.04;98224.78;5053911;28;20201;-69
2022/08/21 06:48:09;;;;;;;5.97;2.97;;;;;;;18.31;70.25;98224.81;5053358;28;20204;-69
2022/08/21 06:50:36;;;;;;;4.63;2.33;;;;;;;18.43;70.23;98227.28;5053202;28;20221;-69
2022/08/21 06:53:10;;;;;;;3.47;2.50;;;;;;;18.48;69.10;98225.44;5053347;28;20305;-69
2022/08/21 06:55:37;;;;;;;3.90;2.80;;;;;;;18.56;68.77;98229.50;5053333;28;20198;-69
2022/08/21 06:58:05;;;;;;;6.10;2.47;;;;;;;18.68;68.54;98220.09;5053173;28;20225;-69
2022/08/21 07:00:32;;;;;;;5.80;2.80;;;;;;;18.70;68.82;98228.72;5053056;28;20307;-69
2022/08/21 07:02:59;;;;;;;3.40;2.77;;;;;;;18.76;68.33;98221.44;5052967;28;20664;-69
2022/08/21 07:05:27;;;;;;;5.73;2.40;;;;;;;19.02;65.91;98215.84;5053165;28;20212;-69
2022/08/21 07:07:53;;;;;;;4.07;2.93;;;;;;;19.10;64.98;98217.97;5053157;28;20207;-69
2022/08/21 07:10:20;;;;;;;5.40;2.57;;;;;;;18.99;63.48;98216.38;5052911;28;20316;-69
2022/08/21 07:12:46;;;;;;;5.07;2.73;;;;;;;19.07;64.34;98217.72;5053035;28;20212;-69
2022/08/21 07:15:13;;;;;;;5.67;3.17;;;;;;;18.99;61.76;98213.66;5052672;28;20691;-69
2022/08/21 07:17:39;;;;;;;7.63;3.30;;;;;;;19.28;60.33;98212.06;5052419;28;20699;-69
2022/08/21 07:20:06;;;;;;;6.63;3.00;;;;;;;19.48;59.61;98210.47;5052800;28;20315;-69
2022/08/21 07:22:33;;;;;;;8.57;3.30;;;;;;;19.52;59.79;98212.34;5052907;28;20216;-69
2022/08/21 07:25:00;;;;;;;5.40;2.83;;;;;;;19.40;59.73;98211.78;5052835;28;20205;-69
2022/08/21 07:27:27;;;;;;;3.63;2.90;;;;;;;19.62;60.20;98214.22;5052731;28;20639;-69
2022/08/21 07:29:53;;;;;;;5.10;2.83;;;;;;;19.76;62.84;98217.97;5056452;28;20323;-69
2022/08/21 07:32:20;;;;;;;4.50;2.80;;;;;;;19.53;63.86;98212.06;5056415;28;20288;-69
2022/08/21 07:34:46;;;;;;;4.70;2.70;;;;;;;19.62;63.83;98211.53;5056692;28;20640;-69
2022/08/21 07:37:12;;;;;;;4.83;2.97;;;;;;;19.86;64.06;98209.84;5056604;28;20575;-69
2022/08/21 07:39:39;;;;;;;6.27;3.00;;;;;;;20.06;63.06;98207.06;5056437;28;20316;-69
2022/08/21 07:42:05;;;;;;;3.43;2.30;;;;;;;20.01;62.85;98209.78;5056091;28;20574;-69
2022/08/21 07:44:34;;;;;;;8.03;3.30;;;;;;;19.94;59.58;98211.97;5056091;28;20205;-69
2022/08/21 07:47:01;;;;;;;5.70;3.23;;;;;;;19.94;58.58;98211.97;5056378;28;20213;-69
2022/08/21 07:49:28;;;;;;;6.23;3.27;;;;;;;20.05;58.57;98206.28;5055985;28;20237;-69
2022/08/21 07:51:55;;;;;;;5.33;2.60;;;;;;;20.28;59.26;98208.34;5056455;28;20212;-69
2022/08/21 07:54:22;;;;;;;4.33;2.90;;;;;;;20.45;57.76;98202.59;5055545;28;20209;-70
2022/08/21 07:56:48;;;;;;;5.37;3.10;;;;;;;20.69;56.12;98200.84;5055995;28;20300;-69
2022/08/21 07:59:14;;;;;;;6.77;3.37;;;;;;;20.76;56.72;98195.94;5055746;28;20332;-69
2022/08/21 08:01:41;;;;;;;5.67;3.40;;;;;;;21.01;54.43;98193.06;5055830;28;20205;-69
2022/08/21 08:04:07;;;;;;;6.47;3.77;;;;;;;20.97;55.65;98195.53;5055970;28;20205;-69
2022/08/21 08:06:34;;;;;;;6.40;3.20;;;;;;;21.19;54.70;98193.19;5055862;28;20233;-69
2022/08/21 08:09:02;;;;;;;6.20;3.13;;;;;;;21.31;53.81;98201.75;5055907;28;20232;-69
2022/08/21 08:11:28;;;;;;;5.53;3.00;;;;;;;21.22;53.85;98189.94;5055978;28;20209;-69
2022/08/21 08:13:56;;;;;;;5.33;3.40;;;;;;;21.37;56.13;98188.97;5055689;28;20221;-69
2022/08/21 08:16:23;;;;;;;6.83;3.27;;;;;;;21.33;56.24;98187.94;5055888;28;20208;-69
2022/08/21 08:18:50;;;;;;;6.43;3.17;;;;;;;21.16;56.69;98188.34;5055224;28;20229;-69
2022/08/21 08:21:18;;;;;;;6.07;3.33;;;;;;;21.43;56.56;98185.16;5055739;28;20208;-69
2022/08/21 08:23:45;;;;;;;4.83;2.93;;;;;;;21.53;56.35;98183.13;5055251;28;20209;-69
2022/08/21 08:26:12;;;;;;;5.17;3.47;;;;;;;21.83;55.19;98185.56;5055457;28;20304;-69
2022/08/21 08:28:38;;;;;;;5.57;3.20;;;;;;;21.29;55.25;98187.69;5055548;28;20205;-69
2022/08/21 08:31:05;;;;;;;4.77;3.07;;;;;;;21.30;56.59;98180.41;5055136;28;20572;-69
2022/08/21 08:33:31;;;;;;;4.67;2.73;;;;;;;21.68;55.89;98174.06;5055259;28;20676;-69
2022/08/21 08:35:58;;;;;;;3.93;3.00;;;;;;;21.75;55.14;98175.38;5055229;28;20618;-69
2022/08/21 08:38:25;;;;;;;4.80;2.77;;;;;;;21.72;55.38;98173.25;5055154;28;20316;-69
2022/08/21 08:41:13;;;;;;;9.70;3.47;;;;;;;21.79;53.72;98170.19;5053850;28;20225;-69
2022/08/21 08:43:43;;;;;;;6.60;3.10;;;;;;;21.71;55.61;98174.31;5055141;28;20273;-69
2022/08/21 08:46:17;;;;;;;4.63;2.83;;;;;;;21.91;55.24;98165.16;5055186;28;20205;-69
2022/08/21 08:49:03;;;;;;;5.87;3.17;;;;;;;22.09;53.72;98169.81;5055087;28;20268;-69
2022/08/21 08:51:37;;;;;;;3.87;2.93;;;;;;;22.16;53.63;98159.47;5055266;28;20190;-69
2022/08/21 08:54:09;;;;;;;6.60;3.70;;;;;;;21.86;53.59;98165.22;5055182;28;20271;-69
2022/08/21 08:56:36;;;;;;;4.13;2.97;;;;;;;21.75;54.40;98164.53;5054990;28;20557;-69
2022/08/21 08:59:12;;;;;;;4.87;3.40;;;;;;;21.82;53.96;98158.78;5054914;28;20252;-69
2022/08/21 09:01:39;;;;;;;4.33;3.17;;;;;;;22.29;53.29;98162.25;5054722;28;20190;-70
2022/08/21 09:04:06;;;;;;;4.87;3.17;;;;;;;22.29;53.30;98153.34;5054720;28;20209;-70
2022/08/21 09:06:38;;;;;;;5.88;2.92;;;;;;;22.37;53.12;98149.94;5054760;28;20629;-69
2022/08/21 09:09:29;;;;;;;6.18;3.53;;;;;;;22.53;47.21;98145.97;5054787;28;20308;-69
2022/08/21 09:12:26;;;;;;;3.45;3.03;;;;;;;22.73;49.41;98149.19;5054770;28;20190;-69
2022/08/21 09:15:30;;;;;;;8.40;3.67;;;;;;;22.81;50.02;98145.00;5054551;28;20200;-69
2022/08/21 09:18:05;;;;;;;5.05;3.47;;;;;;;23.27;49.42;98140.44;5054216;28;20319;-69
2022/08/21 09:20:50;;;;;;;5.00;3.35;;;;;;;23.39;48.29;98148.94;5054413;28;20236;-69
2022/08/21 09:23:44;;;;;;;6.45;2.95;;;;;;;23.31;47.17;98144.19;5054541;28;20193;-69
2022/08/21 09:26:19;;;;;;;5.70;3.58;;;;;;;23.65;44.14;98133.78;5037456;28;20284;-70
2022/08/21 09:28:47;;;;;;;4.82;3.10;;;;;;;23.80;44.99;98141.63;5054418;28;20280;-70
2022/08/21 09:31:27;;;;;;;6.82;3.63;;;;;;;23.61;44.19;98133.56;5054893;28;20212;-69
2022/08/21 09:34:06;;;;;;;9.07;3.38;;;;;;;23.76;44.17;98132.47;5053803;28;20662;-69
2022/08/21 09:36:41;;;;;;;4.90;3.20;;;;;;;23.97;44.68;98142.66;5054228;28;20250;-69
2022/08/21 09:39:08;;;;;;;7.60;3.05;;;;;;;24.34;45.00;98130.75;5036420;28;20240;-70
2022/08/21 09:41:36;;;;;;;6.78;3.35;;;;;;;24.18;42.71;98124.03;5054129;28;20205;-70
2022/08/21 09:44:08;;;;;;;5.53;3.13;;;;;;;24.32;43.47;98124.81;5054050;28;20570;-70
2022/08/21 09:46:36;;;;;;;5.85;3.38;;;;;;;24.51;43.15;98130.91;5053988;28;20299;-69
2022/08/21 09:49:04;;;;;;;5.80;3.55;;;;;;;24.10;43.48;98132.91;5053766;28;20217;-70
2022/08/21 09:51:37;;;;;;;6.82;3.45;;;;;;;24.38;43.44;98123.59;5053611;28;20205;-70
2022/08/21 09:54:06;;;;;;;6.55;3.58;;;;;;;24.17;43.22;98120.53;5054132;28;20284;-70
2022/08/21 09:59:18;;;;;;;7.38;3.47;;;;;;;24.56;42.38;98123.44;5053827;28;20215;-70
2022/08/21 10:01:49;;;;;;;6.53;3.58;;;;;;;24.68;41.87;98118.28;5053334;28;20683;-70
2022/08/21 10:04:22;;;;;;;7.78;3.28;;;;;;;24.57;41.62;98118.81;5053047;28;20641;-70
2022/08/21 10:06:49;;;;;;;4.72;3.33;;;;;;;24.81;41.88;98120.16;5053565;28;20667;-70
2022/08/21 10:09:18;;;;;;;6.80;3.60;;;;;;;24.81;41.61;98111.19;5053633;28;20221;-71
2022/08/21 10:11:57;;;;;;;5.78;3.28;;;;;;;24.47;43.05;98113.59;5053705;28;20213;-71
2022/08/21 10:15:01;;;;;;;5.75;3.38;;;;;;;25.06;41.57;98103.19;5053202;28;20284;-70
2022/08/21 10:17:36;;;;;;;6.95;3.70;;;;;;;25.18;40.94;98108.06;5053289;28;20208;-70
2022/08/21 10:20:23;;;;;;;5.38;3.30;;;;;;;25.03;40.91;98105.75;5053993;28;20311;-70
2022/08/21 10:22:55;;;;;;;7.18;3.60;;;;;;;25.05;41.45;98104.31;5052718;28;20304;-70
2022/08/21 10:25:32;;;;;;;6.43;3.58;;;;;;;25.38;40.93;98097.47;5053274;28;20296;-71
2022/08/21 10:28:06;;;;;;;5.05;3.38;;;;;;;25.58;40.41;98096.13;5053129;28;20185;-71
2022/08/21 10:30:47;;;;;;;5.05;3.03;;;;;;;24.81;41.21;98097.59;5053166;28;20716;-70
2022/08/21 10:33:34;;;;;;;6.53;3.75;;;;;;;24.68;40.95;98103.88;5052843;28;20725;-71
2022/08/21 10:36:05;;;;;;;8.13;4.20;;;;;;;23.78;42.72;98098.50;5037429;28;20215;-70
2022/08/21 10:38:56;;;;;;;6.40;3.50;;;;;;;24.23;43.04;98091.31;5035394;28;20588;-70
2022/08/21 10:41:31;;;;;;;7.22;3.75;;;;;;;24.48;42.08;98085.31;5052793;28;20304;-70
2022/08/21 10:44:01;;;;;;;5.30;3.13;;;;;;;24.49;41.26;98082.28;5052561;28;20299;-70
2022/08/21 10:46:51;;;;;;;6.88;3.47;;;;;;;24.48;41.40;98086.13;5053430;28;20201;-70
2022/08/21 10:49:30;;;;;;;6.18;3.35;;;;;;;24.65;41.18;98096.38;5052795;28;20228;-70
2022/08/21 10:52:14;;;;;;;5.50;3.05;;;;;;;24.96;40.39;98083.63;5053093;28;20281;-71
2022/08/21 10:54:56;;;;;;;7.95;3.65;;;;;;;25.10;40.13;98079.69;5052765;28;20670;-70
2022/08/21 10:57:39;;;;;;;5.68;3.28;;;;;;;25.51;39.17;98084.91;5053119;28;20649;-71
2022/08/21 11:00:14;;;;;;;5.82;3.35;;;;;;;25.82;38.46;98083.72;5052869;28;20228;-71
2022/08/21 11:03:04;;;;;;;7.57;3.28;;;;;;;25.65;39.19;98080.94;5053628;28;20189;-70
2022/08/21 11:05:42;;;;;;;7.55;3.78;;;;;;;25.57;38.66;98080.91;5056559;28;20280;-71
2022/08/21 11:08:30;;;;;;;5.35;3.25;;;;;;;25.39;38.68;98076.53;5039726;28;20189;-71
2022/08/21 11:11:07;;;;;;;11.40;3.72;;;;;;;24.57;40.03;98069.88;5056764;28;20623;-70
2022/08/21 11:13:50;;;;;;;6.85;3.25;;;;;;;25.36;38.91;98074.41;5056532;28;20553;-70
2022/08/21 11:16:32;;;;;;;8.32;3.50;;;;;;;25.77;38.37;98075.69;5039420;28;20197;-70
2022/08/21 11:19:10;;;;;;;5.13;3.35;;;;;;;26.08;37.04;98064.75;5056724;28;20312;-71
2022/08/21 11:21:44;;;;;;;7.53;3.58;;;;;;;25.86;36.92;98073.00;5056905;28;20189;-71
2022/08/21 11:24:51;;;;;;;6.85;3.30;;;;;;;25.63;37.27;98063.31;5056699;28;20200;-70
2022/08/21 11:27:29;;;;;;;7.35;3.47;;;;;;;25.41;37.87;98066.09;5052877;28;20209;-70
2022/08/21 11:30:01;;;;;;;6.53;2.90;;;;;;;25.29;39.54;98060.47;5056368;28;20708;-70
2022/08/21 11:32:59;;;;;;;9.18;3.70;;;;;;;25.56;38.34;98062.97;5056655;28;20296;-70
2022/08/21 11:35:49;;;;;;;4.20;3.10;;;;;;;25.23;38.17;98061.69;5041268;28;20207;-70
2022/08/21 11:38:23;;;;;;;5.07;2.88;;;;;;;25.58;38.25;98058.81;5055931;28;20304;-70
2022/08/21 11:41:22;;;;;;;5.28;3.28;;;;;;;25.75;37.24;98058.88;5055972;28;20238;-71
2022/08/21 11:43:54;;;;;;;4.90;3.08;;;;;;;24.84;38.43;98053.47;5056368;28;20276;-70
2022/08/21 11:46:57;;;;;;;5.28;3.42;;;;;;;24.83;38.52;98051.88;5056234;28;20276;-70
2022/08/21 11:49:42;;;;;;;5.35;3.05;;;;;;;25.48;37.56;98042.78;5012465;28;20224;-71
2022/08/21 11:52:14;;;;;;;5.45;3.45;;;;;;;25.20;37.88;98051.44;5056222;28;20307;-70